Time,TemperatureF,DewpointF,PressureIn,WindDirection,WindDirectionDegrees,WindSpeedMPH,WindSpeedGustMPH,Humidity,HourlyPrecipIn,Conditions,Clouds,dailyrainin,SoftwareType,DateUTC
2013-07-12 00:00:00,63.6,51.0,29.90,West,263,0.0,0.0,64,0.00,,,0.00,weatherlink.com 1.10,2013-07-12 07:00:00,
2013-07-12 00:15:00,62.9,50.0,29.90,West,263,0.0,0.0,63,0.00,,,0.00,weatherlink.com 1.10,2013-07-12 07:15:00,
2013-07-12 00:30:00,62.5,50.0,29.90,West,263,0.0,0.0,65,0.00,,,0.00,weatherlink.com 1.10,2013-07-12 07:30:00,
2013-07-12 00:45:00,61.5,50.0,29.90,West,263,0.0,0.0,66,0.00,,,0.00,weatherlink.com 1.10,2013-07-12 07:45:00,
2013-07-12 01:00:00,61.2,49.0,29.90,West,262,0.0,0.0,64,0.00,,,0.00,weatherlink.com 1.10,2013-07-12 08:00:00,
2013-07-12 01:15:00,60.7,50.0,29.90,West,262,0.0,0.0,68,0.00,,,0.00,weatherlink.com 1.10,2013-07-12 08:15:00,
2013-07-12 01:30:00,60.5,50.0,29.90,West,262,0.0,0.0,68,0.00,,,0.00,weatherlink.com 1.10,2013-07-12 08:30:00,
2013-07-12 01:45:00,59.7,49.0,29.90,West,262,0.0,0.0,68,0.00,,,0.00,weatherlink.com 1.10,2013-07-12 08:45:00,
2013-07-12 02:00:00,59.1,49.0,29.90,West,262,0.0,0.0,70,0.00,,,0.00,weatherlink.com 1.10,2013-07-12 09:00:00,
2013-07-12 02:15:00,59.0,50.0,29.90,West,262,0.0,0.0,71,0.00,,,0.00,weatherlink.com 1.10,2013-07-12 09:15:00,
2013-07-12 02:30:00,58.3,50.0,29.90,West,262,0.0,0.0,73,0.00,,,0.00,weatherlink.com 1.10,2013-07-12 09:30:00,
2013-07-12 02:45:00,57.7,49.0,29.90,West,262,0.0,0.0,73,0.00,,,0.00,weatherlink.com 1.10,2013-07-12 09:45:00,
2013-07-12 03:00:00,57.1,49.0,29.89,West,261,0.0,0.0,74,0.00,,,0.00,weatherlink.com 1.10,2013-07-12 10:00:00,
2013-07-12 03:15:00,56.6,49.0,29.89,West,262,0.0,0.0,76,0.00,,,0.00,weatherlink.com 1.10,2013-07-12 10:15:00,
2013-07-12 03:30:00,56.3,49.0,29.89,West,262,0.0,0.0,77,0.00,,,0.00,weatherlink.com 1.10,2013-07-12 10:30:00,
2013-07-12 03:45:00,56.2,50.0,29.90,West,262,0.0,0.0,79,0.00,,,0.00,weatherlink.com 1.10,2013-07-12 10:45:00,
2013-07-12 04:00:00,55.7,49.0,29.90,West,262,0.0,0.0,78,0.00,,,0.00,weatherlink.com 1.10,2013-07-12 11:00:00,
2013-07-12 04:15:00,55.1,49.0,29.90,West,262,0.0,0.0,80,0.00,,,0.00,weatherlink.com 1.10,2013-07-12 11:15:00,
2013-07-12 04:30:00,55.3,50.0,29.90,West,262,0.0,0.0,82,0.00,,,0.00,weatherlink.com 1.10,2013-07-12 11:30:00,
2013-07-12 04:45:00,55.2,50.0,29.90,West,262,0.0,0.0,81,0.00,,,0.00,weatherlink.com 1.10,2013-07-12 11:45:00,
2013-07-12 05:00:00,54.9,50.0,29.90,West,262,0.0,0.0,82,0.00,,,0.00,weatherlink.com 1.10,2013-07-12 12:00:00,
2013-07-12 05:15:00,54.4,49.0,29.91,West,262,0.0,0.0,81,0.00,,,0.00,weatherlink.com 1.10,2013-07-12 12:15:00,
2013-07-12 05:30:00,54.0,50.0,29.90,West,262,0.0,0.0,85,0.00,,,0.00,weatherlink.com 1.10,2013-07-12 12:30:00,
2013-07-12 05:45:00,53.8,49.0,29.91,West,261,0.0,0.0,84,0.00,,,0.00,weatherlink.com 1.10,2013-07-12 12:45:00,
2013-07-12 06:01:00,53.8,50.0,29.91,West,263,0.0,0.0,86,0.00,,,0.00,weatherlink.com 1.10,2013-07-12 13:01:00,
2013-07-12 06:15:00,53.7,50.0,29.91,West,262,0.0,0.0,86,0.00,,,0.00,weatherlink.com 1.10,2013-07-12 13:15:00,
2013-07-12 06:30:00,54.2,51.0,29.91,West,262,0.0,0.0,87,0.00,,,0.00,weatherlink.com 1.10,2013-07-12 13:30:00,
2013-07-12 06:45:00,55.1,51.0,29.91,West,262,0.0,0.0,86,0.00,,,0.00,weatherlink.com 1.10,2013-07-12 13:45:00,
2013-07-12 07:00:00,56.8,53.0,29.91,West,263,0.0,0.0,86,0.00,,,0.00,weatherlink.com 1.10,2013-07-12 14:00:00,
2013-07-12 07:15:00,62.5,54.0,29.92,West,261,0.0,0.0,74,0.00,,,0.00,weatherlink.com 1.10,2013-07-12 14:15:00,
2013-07-12 07:30:00,65.0,54.0,29.92,West,266,0.0,0.0,68,0.00,,,0.00,weatherlink.com 1.10,2013-07-12 14:30:00,
2013-07-12 07:46:00,65.2,53.0,29.92,ENE,58,1.0,2.0,66,0.00,,,0.00,weatherlink.com 1.10,2013-07-12 14:46:00,
2013-07-12 08:01:00,64.8,53.0,29.93,East,83,0.0,2.0,65,0.00,,,0.00,weatherlink.com 1.10,2013-07-12 15:01:00,
2013-07-12 08:16:00,66.6,53.0,29.93,East,84,1.0,1.0,62,0.00,,,0.00,weatherlink.com 1.10,2013-07-12 15:16:00,
2013-07-12 08:31:00,67.2,53.0,29.93,East,88,2.0,3.0,60,0.00,,,0.00,weatherlink.com 1.10,2013-07-12 15:31:00,
2013-07-12 08:46:00,68.0,53.0,29.93,East,94,2.0,3.0,59,0.00,,,0.00,weatherlink.com 1.10,2013-07-12 15:46:00,
2013-07-12 09:01:00,69.6,53.0,29.93,NNW,328,1.0,2.0,56,0.00,,,0.00,weatherlink.com 1.10,2013-07-12 16:01:00,
2013-07-12 09:16:00,71.6,54.0,29.93,ENE,75,1.0,3.0,55,0.00,,,0.00,weatherlink.com 1.10,2013-07-12 16:16:00,
2013-07-12 09:31:00,73.1,55.0,29.93,East,98,0.0,2.0,53,0.00,,,0.00,weatherlink.com 1.10,2013-07-12 16:31:00,
2013-07-12 09:46:00,75.8,55.0,29.93,ENE,57,1.0,3.0,49,0.00,,,0.00,weatherlink.com 1.10,2013-07-12 16:46:00,
2013-07-12 10:01:00,76.7,55.0,29.93,ENE,72,1.0,3.0,47,0.00,,,0.00,weatherlink.com 1.10,2013-07-12 17:01:00,
2013-07-12 10:16:00,77.9,55.0,29.93,East,94,1.0,5.0,45,0.00,,,0.00,weatherlink.com 1.10,2013-07-12 17:16:00,
2013-07-12 10:31:00,79.9,55.0,29.93,NNE,18,2.0,5.0,42,0.00,,,0.00,weatherlink.com 1.10,2013-07-12 17:31:00,
2013-07-12 10:46:00,80.5,55.0,29.93,North,359,2.0,5.0,41,0.00,,,0.00,weatherlink.com 1.10,2013-07-12 17:46:00,
2013-07-12 11:01:00,82.9,55.0,29.93,SSE,151,2.0,5.0,38,0.00,,,0.00,weatherlink.com 1.10,2013-07-12 18:01:00,
2013-07-12 11:16:00,83.5,53.0,29.93,East,87,2.0,4.0,35,0.00,,,0.00,weatherlink.com 1.10,2013-07-12 18:16:00,
2013-07-12 11:46:00,83.8,54.0,29.93,ESE,120,0.0,6.0,36,0.00,,,0.00,weatherlink.com 1.10,2013-07-12 18:46:00,
2013-07-12 12:01:00,84.6,52.0,29.93,South,179,1.0,5.0,33,0.00,,,0.00,weatherlink.com 1.10,2013-07-12 19:01:00,
2013-07-12 13:02:00,88.5,49.0,29.93,ENE,74,5.0,5.0,26,0.00,,,0.00,weatherlink.com 1.10,2013-07-12 20:02:00,
2013-07-12 13:17:00,88.3,50.0,29.93,ESE,112,3.0,6.0,27,0.00,,,0.00,weatherlink.com 1.10,2013-07-12 20:17:00,
2013-07-12 13:32:00,89.7,52.0,29.92,SE,139,0.0,4.0,27,0.00,,,0.00,weatherlink.com 1.10,2013-07-12 20:32:00,
2013-07-12 13:47:00,89.8,51.0,29.92,SE,142,1.0,6.0,26,0.00,,,0.00,weatherlink.com 1.10,2013-07-12 20:47:00,
2013-07-12 14:02:00,89.9,52.0,29.92,East,101,3.0,5.0,27,0.00,,,0.00,weatherlink.com 1.10,2013-07-12 21:02:00,
2013-07-12 14:32:00,89.9,54.0,29.91,NE,39,0.0,4.0,29,0.00,,,0.00,weatherlink.com 1.10,2013-07-12 21:32:00,
2013-07-12 14:47:00,90.6,53.0,29.91,SSW,194,0.0,5.0,28,0.00,,,0.00,weatherlink.com 1.10,2013-07-12 21:47:00,
2013-07-12 15:02:00,90.7,52.0,29.91,SSW,194,0.0,5.0,27,0.00,,,0.00,weatherlink.com 1.10,2013-07-12 22:02:00,
2013-07-12 15:17:00,89.8,55.0,29.91,SE,131,3.0,5.0,30,0.00,,,0.00,weatherlink.com 1.10,2013-07-12 22:17:00,
2013-07-12 15:32:00,90.4,53.0,29.90,ESE,117,2.0,5.0,28,0.00,,,0.00,weatherlink.com 1.10,2013-07-12 22:32:00,
2013-07-12 15:47:00,89.5,52.0,29.90,SE,126,3.0,6.0,28,0.00,,,0.00,weatherlink.com 1.10,2013-07-12 22:47:00,
2013-07-12 16:02:00,89.2,52.0,29.90,SE,134,1.0,5.0,28,0.00,,,0.00,weatherlink.com 1.10,2013-07-12 23:02:00,
2013-07-12 16:17:00,88.5,50.0,29.90,ESE,108,1.0,6.0,27,0.00,,,0.00,weatherlink.com 1.10,2013-07-12 23:17:00,
2013-07-12 16:32:00,88.5,50.0,29.89,East,101,0.0,7.0,27,0.00,,,0.00,weatherlink.com 1.10,2013-07-12 23:32:00,
2013-07-12 16:47:00,88.1,52.0,29.89,WNW,293,1.0,7.0,29,0.00,,,0.00,weatherlink.com 1.10,2013-07-12 23:47:00,
2013-07-12 17:17:00,87.0,52.0,29.89,ESE,120,1.0,6.0,30,0.00,,,0.00,weatherlink.com 1.10,2013-07-13 00:17:00,
2013-07-12 17:32:00,86.5,52.0,29.89,ESE,108,1.0,5.0,31,0.00,,,0.00,weatherlink.com 1.10,2013-07-13 00:32:00,
2013-07-12 17:47:00,86.1,52.0,29.89,East,96,3.0,5.0,31,0.00,,,0.00,weatherlink.com 1.10,2013-07-13 00:47:00,
2013-07-12 18:02:00,85.3,53.0,29.88,ESE,114,2.0,3.0,33,0.00,,,0.00,weatherlink.com 1.10,2013-07-13 01:02:00,
2013-07-12 18:17:00,84.6,54.0,29.88,East,96,3.0,4.0,35,0.00,,,0.00,weatherlink.com 1.10,2013-07-13 01:17:00,
2013-07-12 18:47:00,83.0,55.0,29.88,SSE,148,0.0,4.0,38,0.00,,,0.00,weatherlink.com 1.10,2013-07-13 01:47:00,
2013-07-12 19:32:00,80.1,56.0,29.89,SSE,160,0.0,1.0,43,0.00,,,0.00,weatherlink.com 1.10,2013-07-13 02:32:00,
2013-07-12 19:47:00,78.8,54.0,29.89,ESE,123,0.0,0.0,43,0.00,,,0.00,weatherlink.com 1.10,2013-07-13 02:47:00,
2013-07-12 20:02:00,78.2,54.0,29.89,SSW,198,0.0,0.0,43,0.00,,,0.00,weatherlink.com 1.10,2013-07-13 03:02:00,
2013-07-12 20:32:00,75.5,51.0,29.89,SW,226,0.0,0.0,42,0.00,,,0.00,weatherlink.com 1.10,2013-07-13 03:32:00,
2013-07-12 20:47:00,73.7,50.0,29.90,West,267,0.0,1.0,43,0.00,,,0.00,weatherlink.com 1.10,2013-07-13 03:47:00,
2013-07-12 21:02:00,73.6,50.0,29.90,West,263,0.0,2.0,43,0.00,,,0.00,weatherlink.com 1.10,2013-07-13 04:02:00,
2013-07-12 21:17:00,72.4,45.0,29.90,West,266,0.0,1.0,38,0.00,,,0.00,weatherlink.com 1.10,2013-07-13 04:17:00,
2013-07-12 21:32:00,71.8,48.0,29.91,West,266,1.0,1.0,43,0.00,,,0.00,weatherlink.com 1.10,2013-07-13 04:32:00,
2013-07-12 21:47:00,70.5,46.0,29.91,West,266,1.0,1.0,41,0.00,,,0.00,weatherlink.com 1.10,2013-07-13 04:47:00,
2013-07-12 22:02:00,70.5,44.0,29.91,West,265,1.0,1.0,38,0.00,,,0.00,weatherlink.com 1.10,2013-07-13 05:02:00,
2013-07-12 22:17:00,70.0,49.0,29.91,West,265,1.0,1.0,48,0.00,,,0.00,weatherlink.com 1.10,2013-07-13 05:17:00,
2013-07-12 22:33:00,68.5,47.0,29.92,West,265,0.0,1.0,46,0.00,,,0.00,weatherlink.com 1.10,2013-07-13 05:33:00,
2013-07-12 22:47:00,69.3,42.0,29.92,West,266,0.0,1.0,37,0.00,,,0.00,weatherlink.com 1.10,2013-07-13 05:47:00,
2013-07-12 23:02:00,67.9,40.0,29.92,West,266,1.0,1.0,36,0.00,,,0.00,weatherlink.com 1.10,2013-07-13 06:02:00,
2013-07-12 23:17:00,68.3,40.0,29.92,West,266,1.0,1.0,36,0.00,,,0.00,weatherlink.com 1.10,2013-07-13 06:17:00,
2013-07-12 23:32:00,68.3,47.0,29.92,West,266,0.0,1.0,46,0.00,,,0.00,weatherlink.com 1.10,2013-07-13 06:32:00,
2013-07-12 23:47:00,67.9,47.0,29.92,West,266,0.0,0.0,48,0.00,,,0.00,weatherlink.com 1.10,2013-07-13 06:47:00,